Time;durP1;ratioP1;P1;durP2;ratioP2;P2;SDS_P1;SDS_P2;PMS_P1;PMS_P2;Temp;Humidity;BMP_temperature;BMP_pressure;BME280_temperature;BME280_humidity;BME280_pressure;Samples;Min_cycle;Max_cycle;Signal;HPM_P1;HPM_P2
2023/07/19 00:00:45;;;;;;;8.70;3.55;;;;;;;16.65;100.00;101278.38;5191489;28;20030;-71
2023/07/19 00:03:17;;;;;;;7.70;2.95;;;;;;;16.65;100.00;101280.25;5196590;28;20049;-72
2023/07/19 00:05:48;;;;;;;7.45;3.75;;;;;;;16.53;100.00;101271.50;5192295;28;20110;-72
2023/07/19 00:08:20;;;;;;;7.20;3.80;;;;;;;16.62;100.00;101272.44;5192304;28;20084;-71
2023/07/19 00:10:51;;;;;;;7.15;3.95;;;;;;;16.57;100.00;101267.50;5193726;28;20079;-72
2023/07/19 00:13:23;;;;;;;8.43;3.60;;;;;;;16.44;100.00;101267.81;5195695;28;20034;-71
2023/07/19 00:15:55;;;;;;;7.30;3.63;;;;;;;16.40;100.00;101276.34;5190557;28;20029;-72
2023/07/19 00:18:26;;;;;;;8.20;3.25;;;;;;;16.41;100.00;101275.34;5191983;28;20030;-72
2023/07/19 00:20:57;;;;;;;7.45;3.38;;;;;;;16.43;100.00;101271.50;5194635;28;20030;-72
2023/07/19 00:23:29;;;;;;;6.38;3.33;;;;;;;16.49;100.00;101264.66;5193414;28;20390;-71
2023/07/19 00:26:00;;;;;;;5.95;3.17;;;;;;;16.42;100.00;101260.88;5190600;28;20117;-71
2023/07/19 00:28:31;;;;;;;5.68;3.40;;;;;;;16.40;100.00;101258.31;5190986;28;20036;-71
2023/07/19 00:31:03;;;;;;;7.50;3.30;;;;;;;16.39;100.00;101248.53;5191319;28;20029;-71
2023/07/19 00:33:35;;;;;;;6.22;3.60;;;;;;;16.42;100.00;101248.25;5200251;28;20319;-71
2023/07/19 00:36:06;;;;;;;7.15;3.45;;;;;;;16.44;100.00;101250.81;5196199;28;20024;-72
2023/07/19 00:38:38;;;;;;;6.75;3.00;;;;;;;16.34;100.00;101244.56;5199894;28;20049;-71
2023/07/19 00:41:09;;;;;;;5.47;3.40;;;;;;;16.21;100.00;101248.44;5195692;28;20501;-72
2023/07/19 00:43:40;;;;;;;7.85;3.70;;;;;;;16.33;100.00;101234.81;5198481;28;20384;-72
2023/07/19 00:46:12;;;;;;;6.65;3.38;;;;;;;16.29;100.00;101233.41;5190176;28;20022;-72
2023/07/19 00:48:43;;;;;;;7.30;3.60;;;;;;;16.19;100.00;101236.13;5191366;28;20076;-71
2023/07/19 00:51:16;;;;;;;5.57;3.40;;;;;;;16.14;100.00;101230.31;5191825;28;20072;-71
2023/07/19 00:53:52;;;;;;;6.05;3.72;;;;;;;16.12;100.00;101235.84;5187847;28;20044;-72
2023/07/19 00:56:25;;;;;;;5.50;3.20;;;;;;;16.13;100.00;101229.47;5189211;28;20069;-71
2023/07/19 00:58:58;;;;;;;8.27;3.45;;;;;;;16.06;100.00;101223.81;5189243;28;20586;-72
2023/07/19 01:01:29;;;;;;;5.97;3.22;;;;;;;16.19;100.00;101228.06;5193199;28;20599;-72
2023/07/19 01:04:00;;;;;;;5.15;2.97;;;;;;;16.14;100.00;101233.84;5190448;28;20096;-71
2023/07/19 01:06:32;;;;;;;6.18;2.85;;;;;;;16.15;100.00;101232.88;5188668;28;20077;-72
2023/07/19 01:09:04;;;;;;;5.88;2.92;;;;;;;16.09;100.00;101230.75;5188461;28;20050;-71
2023/07/19 01:11:35;;;;;;;4.65;2.40;;;;;;;16.02;100.00;101235.00;5187924;28;20480;-72
2023/07/19 01:14:07;;;;;;;4.70;2.63;;;;;;;15.93;100.00;101225.94;5194283;28;20036;-72
2023/07/19 01:16:39;;;;;;;7.13;2.75;;;;;;;15.95;100.00;101223.13;5192490;28;20068;-71
2023/07/19 01:19:10;;;;;;;4.53;2.70;;;;;;;15.94;100.00;101224.13;5188042;28;20716;-71
2023/07/19 01:21:42;;;;;;;5.32;3.10;;;;;;;15.94;100.00;101221.44;5189852;28;20023;-71
2023/07/19 01:24:14;;;;;;;7.72;3.08;;;;;;;15.90;100.00;101217.31;5194366;28;20085;-72
2023/07/19 01:26:45;;;;;;;5.22;2.90;;;;;;;15.97;100.00;101221.97;5195005;28;20070;-73
2023/07/19 01:29:16;;;;;;;7.00;3.05;;;;;;;15.93;100.00;101212.50;5190915;28;20034;-71
2023/07/19 01:31:48;;;;;;;10.52;3.00;;;;;;;15.88;100.00;101207.53;5192194;28;20034;-71
2023/07/19 01:34:19;;;;;;;6.18;2.70;;;;;;;15.87;100.00;101208.53;5192972;28;20511;-71
2023/07/19 01:36:51;;;;;;;8.27;3.28;;;;;;;15.83;100.00;101203.59;5192632;28;20038;-72
2023/07/19 01:39:22;;;;;;;7.30;3.17;;;;;;;15.86;100.00;101204.16;5196904;28;20087;-71
2023/07/19 01:41:53;;;;;;;7.22;2.97;;;;;;;15.85;100.00;101201.59;5199940;28;20030;-72
2023/07/19 01:44:25;;;;;;;6.38;3.10;;;;;;;15.90;100.00;101201.16;5196073;28;20068;-71
2023/07/19 01:46:56;;;;;;;5.80;3.08;;;;;;;15.98;100.00;101209.38;5194763;28;20066;-72
2023/07/19 01:49:28;;;;;;;6.72;3.20;;;;;;;15.95;100.00;101202.44;5200601;28;20030;-72
2023/07/19 01:51:59;;;;;;;8.20;2.95;;;;;;;16.03;100.00;101201.72;5198050;28;20025;-72
2023/07/19 01:54:30;;;;;;;7.10;2.67;;;;;;;16.01;100.00;101196.50;5214749;28;20029;-72
2023/07/19 01:57:04;;;;;;;6.88;3.22;;;;;;;15.98;100.00;101199.47;5195884;28;20034;-72
2023/07/19 01:59:35;;;;;;;6.95;2.88;;;;;;;15.99;100.00;101200.31;5196827;28;20045;-72
2023/07/19 02:02:07;;;;;;;9.68;3.38;;;;;;;15.93;100.00;101207.09;5199579;28;20026;-71
2023/07/19 02:04:38;;;;;;;8.35;3.17;;;;;;;15.88;100.00;101206.72;5199389;28;20061;-71
2023/07/19 02:07:09;;;;;;;6.60;2.67;;;;;;;16.01;100.00;101198.31;5197129;28;20037;-71
2023/07/19 02:09:41;;;;;;;6.95;2.90;;;;;;;15.87;100.00;101200.44;5196268;28;20582;-71
2023/07/19 02:12:12;;;;;;;9.00;3.20;;;;;;;16.00;100.00;101204.72;5203837;28;20060;-71
2023/07/19 02:14:44;;;;;;;6.88;2.90;;;;;;;16.05;100.00;101199.72;5195257;28;20026;-71
2023/07/19 02:17:15;;;;;;;7.93;3.22;;;;;;;15.97;100.00;101199.59;5200954;28;20034;-71
2023/07/19 02:19:47;;;;;;;6.70;3.00;;;;;;;15.93;100.00;101185.56;5200842;28;20468;-71
2023/07/19 02:22:18;;;;;;;6.97;2.78;;;;;;;15.94;100.00;101179.22;5205382;28;20026;-73
2023/07/19 02:24:50;;;;;;;8.02;2.70;;;;;;;16.02;100.00;101184.72;5200002;28;20799;-71
2023/07/19 02:27:22;;;;;;;5.68;2.92;;;;;;;15.92;100.00;101185.75;5195298;28;20026;-72
2023/07/19 02:29:53;;;;;;;7.05;3.28;;;;;;;15.93;100.00;101190.13;5200781;28;20030;-71
2023/07/19 02:32:24;;;;;;;6.60;2.85;;;;;;;15.87;100.00;101188.84;5199794;28;20036;-72
2023/07/19 02:34:56;;;;;;;6.55;3.05;;;;;;;15.84;100.00;101186.47;5199448;28;20041;-72
2023/07/19 02:37:27;;;;;;;6.68;3.35;;;;;;;15.84;100.00;101178.41;5197602;28;20516;-71
2023/07/19 02:39:59;;;;;;;6.35;3.45;;;;;;;16.06;100.00;101185.28;5201441;28;20029;-71
2023/07/19 02:42:30;;;;;;;7.15;3.58;;;;;;;15.96;100.00;101179.06;5200821;28;20140;-71
2023/07/19 02:45:01;;;;;;;8.30;3.40;;;;;;;15.95;100.00;101182.75;5197413;28;20029;-71
2023/07/19 02:47:33;;;;;;;9.07;3.60;;;;;;;15.93;100.00;101190.13;5198116;28;20037;-71
2023/07/19 02:50:05;;;;;;;5.93;3.33;;;;;;;15.93;100.00;101184.75;5202192;28;20515;-71
2023/07/19 02:52:36;;;;;;;6.68;3.55;;;;;;;15.95;100.00;101193.50;5197995;28;20030;-72
2023/07/19 02:55:08;;;;;;;6.82;3.25;;;;;;;15.94;100.00;101186.44;5202652;28;20025;-71
2023/07/19 02:57:39;;;;;;;9.02;3.80;;;;;;;15.92;100.00;101183.06;5202154;28;20121;-71
2023/07/19 03:00:11;;;;;;;6.80;3.65;;;;;;;15.91;100.00;101192.94;5198347;28;20042;-71
2023/07/19 03:02:46;;;;;;;7.90;4.18;;;;;;;15.88;100.00;101193.25;5200267;28;20077;-71
2023/07/19 03:05:18;;;;;;;7.50;4.22;;;;;;;15.86;100.00;101190.69;5203450;28;20048;-71
2023/07/19 03:07:49;;;;;;;7.93;4.30;;;;;;;16.05;100.00;101191.66;5195886;28;20042;-71
2023/07/19 03:10:21;;;;;;;7.80;4.28;;;;;;;16.00;100.00;101194.78;5197102;28;20026;-71
2023/07/19 03:12:52;;;;;;;8.48;4.55;;;;;;;16.12;100.00;101200.00;5199148;28;20034;-71
2023/07/19 03:15:24;;;;;;;7.43;4.20;;;;;;;16.06;100.00;101204.97;5196820;28;20421;-70
2023/07/19 03:17:55;;;;;;;6.25;4.47;;;;;;;16.10;100.00;101205.53;5197104;28;20034;-70
2023/07/19 03:20:27;;;;;;;6.85;4.13;;;;;;;15.97;100.00;101203.13;5201601;28;20036;-70
2023/07/19 03:23:00;;;;;;;7.63;4.63;;;;;;;16.10;100.00;101194.75;5200247;28;20022;-70
2023/07/19 03:25:31;;;;;;;7.18;4.38;;;;;;;15.95;100.00;101204.28;5195031;28;20018;-71
2023/07/19 03:28:03;;;;;;;10.07;5.40;;;;;;;15.95;100.00;101204.28;5195180;28;20496;-71
2023/07/19 03:30:35;;;;;;;10.77;5.60;;;;;;;16.01;100.00;101214.47;5204019;28;20032;-70
2023/07/19 03:33:06;;;;;;;10.73;5.40;;;;;;;15.99;100.00;101216.44;5198176;28;20045;-70
2023/07/19 03:35:38;;;;;;;9.10;5.93;;;;;;;15.99;100.00;101228.09;5201987;28;20057;-70
2023/07/19 03:38:09;;;;;;;9.07;5.18;;;;;;;15.88;100.00;101215.63;5198315;28;20030;-70
2023/07/19 03:40:40;;;;;;;8.05;4.57;;;;;;;15.90;100.00;101204.72;5199804;28;20033;-70
2023/07/19 03:43:12;;;;;;;7.55;5.00;;;;;;;15.87;100.00;101219.28;5200067;28;20085;-70
2023/07/19 03:45:44;;;;;;;8.95;5.65;;;;;;;15.88;100.00;101212.94;5198470;28;20030;-70
2023/07/19 03:48:15;;;;;;;8.13;6.20;;;;;;;15.95;100.00;101217.72;5199563;28;20034;-70
2023/07/19 03:51:01;;;;;;;10.13;6.68;;;;;;;15.92;100.00;101221.56;5200477;28;20031;-70
2023/07/19 03:53:32;;;;;;;9.40;6.47;;;;;;;16.05;100.00;101213.19;5209299;28;20506;-70
2023/07/19 03:56:04;;;;;;;9.18;5.93;;;;;;;15.98;100.00;101220.16;5200244;28;20030;-70
2023/07/19 03:58:35;;;;;;;8.48;5.78;;;;;;;16.01;100.00;101225.22;5202477;28;20037;-70
2023/07/19 04:01:07;;;;;;;8.60;7.13;;;;;;;16.15;100.00;101229.34;5198354;28;20579;-70
2023/07/19 04:03:38;;;;;;;10.68;5.80;;;;;;;15.98;100.00;101222.84;5199305;28;20104;-70
2023/07/19 04:06:10;;;;;;;8.30;6.05;;;;;;;16.01;100.00;101218.03;5201098;28;20375;-69
2023/07/19 04:08:41;;;;;;;10.10;6.50;;;;;;;16.11;100.00;101223.38;5199114;28;20472;-69
2023/07/19 04:11:13;;;;;;;8.25;6.13;;;;;;;15.99;100.00;101224.53;5198552;28;20026;-70
2023/07/19 04:13:46;;;;;;;8.00;5.90;;;;;;;16.15;100.00;101218.56;5202324;28;20073;-70
2023/07/19 04:16:17;;;;;;;9.55;6.95;;;;;;;16.22;100.00;101215.16;5197652;28;20113;-69
2023/07/19 04:18:49;;;;;;;10.23;5.90;;;;;;;16.20;100.00;101225.22;5192417;28;20393;-69
2023/07/19 04:21:21;;;;;;;9.88;6.50;;;;;;;16.31;100.00;101213.41;5190338;28;20053;-70
2023/07/19 04:23:52;;;;;;;10.35;6.85;;;;;;;16.21;100.00;101217.97;5201842;28;20034;-70
2023/07/19 04:26:23;;;;;;;10.60;7.22;;;;;;;16.29;100.00;101219.94;5199527;28;20116;-70
2023/07/19 04:28:57;;;;;;;8.85;6.35;;;;;;;16.29;100.00;101219.94;5198004;28;20025;-69
2023/07/19 04:31:28;;;;;;;11.65;6.63;;;;;;;16.33;100.00;101215.97;5201179;28;20037;-70
2023/07/19 04:34:00;;;;;;;10.35;6.43;;;;;;;16.24;100.00;101215.84;5201765;28;20029;-69
2023/07/19 04:36:31;;;;;;;7.90;6.70;;;;;;;16.33;100.00;101215.97;5199735;28;20030;-69
2023/07/19 04:39:03;;;;;;;8.82;6.55;;;;;;;16.26;100.00;101219.25;5196182;28;20159;-70
2023/07/19 04:41:35;;;;;;;11.20;7.30;;;;;;;16.26;100.00;101219.25;5192526;28;20516;-70
2023/07/19 04:44:06;;;;;;;9.65;7.40;;;;;;;16.40;100.00;101219.78;5194604;28;20125;-70
2023/07/19 04:46:37;;;;;;;10.45;6.85;;;;;;;16.33;100.00;101222.19;5195771;28;20034;-69
2023/07/19 04:49:09;;;;;;;9.25;6.25;;;;;;;16.27;100.00;101220.94;5199995;28;20062;-70
2023/07/19 04:51:40;;;;;;;12.23;6.15;;;;;;;16.29;100.00;101228.88;5200354;28;20101;-69
2023/07/19 04:54:12;;;;;;;9.70;6.18;;;;;;;16.29;100.00;101231.56;5195683;28;20028;-70
2023/07/19 04:56:43;;;;;;;7.53;6.00;;;;;;;16.35;100.00;101230.13;5202475;28;20547;-70
2023/07/19 04:59:15;;;;;;;8.93;6.00;;;;;;;16.35;100.00;101222.91;5195691;28;20040;-69
2023/07/19 05:01:46;;;;;;;8.90;5.88;;;;;;;16.33;100.00;101237.50;5193134;28;20164;-69
2023/07/19 05:04:18;;;;;;;7.50;6.30;;;;;;;16.45;100.00;101236.34;5200420;28;20399;-69
2023/07/19 05:06:52;;;;;;;9.45;6.47;;;;;;;16.37;100.00;101242.44;5200945;28;20500;-69
2023/07/19 05:09:23;;;;;;;10.48;5.95;;;;;;;16.36;100.00;101224.59;5194236;28;20050;-69
2023/07/19 05:11:55;;;;;;;10.45;6.20;;;;;;;16.37;100.00;101231.69;5198286;28;20448;-69
2023/07/19 05:14:26;;;;;;;9.45;6.20;;;;;;;16.42;100.00;101229.41;5195021;28;20381;-69
2023/07/19 05:16:57;;;;;;;7.75;5.75;;;;;;;16.45;100.00;101222.88;5193477;28;20026;-69
2023/07/19 05:19:29;;;;;;;7.05;5.65;;;;;;;16.50;100.00;101220.59;5198760;28;20556;-70
2023/07/19 05:22:00;;;;;;;10.27;5.80;;;;;;;16.52;100.00;101229.38;5212187;28;20044;-69
2023/07/19 05:24:32;;;;;;;7.93;5.90;;;;;;;16.59;100.00;101230.50;5207129;28;20029;-69
2023/07/19 05:27:03;;;;;;;9.52;6.65;;;;;;;16.72;100.00;101238.25;5206897;28;20064;-69
2023/07/19 05:29:35;;;;;;;8.95;5.43;;;;;;;16.68;100.00;101228.75;5205520;28;20994;-69
2023/07/19 05:32:07;;;;;;;10.88;5.85;;;;;;;16.78;100.00;101224.19;5201912;28;20117;-69
2023/07/19 05:34:38;;;;;;;8.57;6.00;;;;;;;16.81;100.00;101223.84;5201205;28;20030;-69
2023/07/19 05:37:10;;;;;;;8.75;6.13;;;;;;;16.87;100.00;101217.06;5205136;28;20092;-70
2023/07/19 05:39:41;;;;;;;8.82;6.05;;;;;;;16.95;100.00;101214.50;5204228;28;20033;-69
2023/07/19 05:42:13;;;;;;;8.30;5.47;;;;;;;17.03;100.00;101211.88;5204294;28;20068;-69
2023/07/19 05:44:44;;;;;;;8.10;6.07;;;;;;;17.08;100.00;101207.88;5206908;28;20019;-69
2023/07/19 05:47:17;;;;;;;10.02;6.38;;;;;;;17.13;100.00;101217.22;5198681;28;20569;-70
2023/07/19 05:49:48;;;;;;;13.43;6.35;;;;;;;17.21;100.00;101211.06;5209511;28;20441;-69
2023/07/19 05:52:19;;;;;;;11.20;5.57;;;;;;;17.34;100.00;101214.25;5204098;28;21544;-69
2023/07/19 05:54:51;;;;;;;9.88;5.90;;;;;;;17.41;100.00;101214.47;5205327;28;20117;-69
2023/07/19 05:57:22;;;;;;;9.32;5.63;;;;;;;17.43;100.00;101213.31;5198951;28;20566;-69
2023/07/19 05:59:54;;;;;;;8.32;5.68;;;;;;;17.53;100.00;101217.81;5207102;28;20506;-70
2023/07/19 06:02:25;;;;;;;10.45;6.47;;;;;;;17.59;100.00;101215.31;5193139;28;20034;-70
2023/07/19 06:04:57;;;;;;;10.93;6.03;;;;;;;17.69;100.00;101214.41;5203717;28;20076;-70
2023/07/19 06:07:29;;;;;;;10.15;5.70;;;;;;;17.71;100.00;101217.78;5211123;28;20037;-70
2023/07/19 06:10:00;;;;;;;11.82;6.30;;;;;;;17.79;100.00;101216.00;5203948;28;20037;-69
2023/07/19 06:12:31;;;;;;;10.77;5.57;;;;;;;17.84;100.00;101210.19;5208101;28;20068;-70
2023/07/19 06:15:03;;;;;;;15.20;6.10;;;;;;;17.94;100.00;101215.50;5204603;28;20037;-70
2023/07/19 06:17:36;;;;;;;10.32;5.88;;;;;;;18.01;100.00;101221.97;5202826;28;20404;-70
2023/07/19 06:20:10;;;;;;;8.32;5.70;;;;;;;18.07;100.00;101215.94;5213463;28;20025;-70
2023/07/19 06:22:41;;;;;;;;;;;;;;;18.33;100.00;101215.06;5199244;28;20034;-70
2023/07/19 06:25:12;;;;;;;11.35;5.50;;;;;;;18.32;100.00;101202.59;5206695;28;19931;-70
2023/07/19 06:27:44;;;;;;;9.30;5.43;;;;;;;18.37;100.00;101205.66;5200213;28;20724;-70
2023/07/19 06:30:15;;;;;;;10.73;5.40;;;;;;;18.42;100.00;101206.03;5195463;28;20492;-70
2023/07/19 06:32:47;;;;;;;9.55;6.03;;;;;;;18.52;100.00;101204.03;5194590;28;20109;-70
2023/07/19 06:35:18;;;;;;;9.15;5.57;;;;;;;18.46;100.00;101199.28;5193763;28;20025;-70
2023/07/19 06:37:50;;;;;;;13.57;5.70;;;;;;;18.43;100.00;101194.22;5198570;28;20030;-71
2023/07/19 06:40:21;;;;;;;10.63;5.40;;;;;;;18.42;100.00;101200.63;5197497;28;20041;-70
2023/07/19 06:42:53;;;;;;;8.18;5.53;;;;;;;18.47;100.00;101205.56;5208634;28;20034;-70
2023/07/19 06:45:25;;;;;;;9.00;6.03;;;;;;;18.42;100.00;101209.56;5201868;28;20049;-70
2023/07/19 06:47:56;;;;;;;13.38;6.35;;;;;;;18.47;100.00;101205.56;5198562;28;20030;-71
2023/07/19 06:50:28;;;;;;;9.57;5.82;;;;;;;18.54;100.00;101207.47;5196500;28;20107;-70
2023/07/19 06:53:00;;;;;;;12.07;6.53;;;;;;;18.56;100.00;101199.16;5193805;28;21267;-70
2023/07/19 06:55:31;;;;;;;11.55;5.45;;;;;;;18.60;100.00;101204.09;5193355;28;20044;-70
2023/07/19 06:58:03;;;;;;;9.13;5.43;;;;;;;18.77;100.00;101210.44;5195036;28;20029;-70
2023/07/19 07:00:34;;;;;;;11.05;5.28;;;;;;;18.89;100.00;101205.63;5199980;28;20042;-70
2023/07/19 07:03:06;;;;;;;9.88;5.05;;;;;;;19.03;100.00;101200.59;5205953;28;20026;-71
2023/07/19 07:05:38;;;;;;;8.77;5.40;;;;;;;19.25;100.00;101204.53;5202081;28;20067;-70
2023/07/19 07:08:09;;;;;;;12.25;5.50;;;;;;;19.37;100.00;101208.63;5207887;28;20062;-70
2023/07/19 07:10:44;;;;;;;9.75;4.70;;;;;;;19.47;100.00;101205.78;5198301;28;20029;-70
2023/07/19 07:13:16;;;;;;;10.27;5.22;;;;;;;19.62;100.00;101216.75;5192007;28;20052;-70
2023/07/19 07:15:50;;;;;;;8.43;5.18;;;;;;;19.70;100.00;101214.91;5192516;28;20420;-70
2023/07/19 07:18:22;;;;;;;7.15;4.32;;;;;;;19.76;100.00;101216.16;5197318;28;20136;-70
2023/07/19 07:20:53;;;;;;;7.18;4.30;;;;;;;19.86;100.00;101215.97;5191194;28;20503;-71
2023/07/19 07:23:25;;;;;;;7.55;4.05;;;;;;;19.97;100.00;101213.75;5192815;28;20030;-70
2023/07/19 07:25:56;;;;;;;7.72;3.92;;;;;;;20.03;100.00;101214.94;5190071;28;20037;-71
2023/07/19 07:28:27;;;;;;;9.40;4.07;;;;;;;20.09;100.00;101216.13;5199302;28;20034;-70
2023/07/19 07:31:06;;;;;;;10.18;4.20;;;;;;;20.18;100.00;101210.53;5188067;28;20025;-70
2023/07/19 07:33:39;;;;;;;9.10;4.38;;;;;;;20.18;100.00;101207.81;5198428;28;20081;-70
2023/07/19 07:36:10;;;;;;;10.05;4.20;;;;;;;20.31;100.00;101204.59;5206232;28;20041;-71
2023/07/19 07:38:41;;;;;;;9.80;4.10;;;;;;;20.42;100.00;101197.09;5202746;28;20213;-70
2023/07/19 07:41:13;;;;;;;8.43;4.22;;;;;;;20.49;100.00;101204.38;5196116;28;20034;-70
2023/07/19 07:43:44;;;;;;;9.80;3.80;;;;;;;20.58;100.00;101205.19;5203645;28;20030;-71
2023/07/19 07:46:15;;;;;;;7.72;3.80;;;;;;;20.57;100.00;101196.19;5215626;28;20025;-71
2023/07/19 07:48:47;;;;;;;7.78;3.40;;;;;;;20.59;100.00;101197.91;5198632;28;20021;-71
2023/07/19 07:51:18;;;;;;;8.88;3.28;;;;;;;20.59;100.00;101206.03;5188815;28;20377;-71
2023/07/19 07:53:50;;;;;;;7.13;3.80;;;;;;;20.51;100.00;101196.06;5195042;28;20044;-70
2023/07/19 07:56:23;;;;;;;5.63;3.20;;;;;;;20.53;100.00;101196.72;5192698;28;20157;-71
2023/07/19 07:58:54;;;;;;;7.90;3.17;;;;;;;20.63;100.00;101196.56;5189396;28;20137;-70
2023/07/19 08:01:26;;;;;;;8.23;3.17;;;;;;;20.71;100.00;101196.53;5193956;28;20029;-71
2023/07/19 08:03:58;;;;;;;6.78;3.22;;;;;;;20.83;100.00;101200.56;5198807;28;20538;-70
2023/07/19 08:06:29;;;;;;;7.20;3.10;;;;;;;20.85;100.00;101192.25;5199663;28;20124;-71
2023/07/19 08:09:01;;;;;;;6.63;2.65;;;;;;;20.81;100.00;101190.91;5200309;28;20542;-71
2023/07/19 08:11:32;;;;;;;5.95;2.50;;;;;;;20.74;100.00;101197.03;5205472;28;20500;-71
2023/07/19 08:14:04;;;;;;;5.53;2.30;;;;;;;20.78;100.00;101185.84;5205706;28;20030;-71
2023/07/19 08:16:35;;;;;;;6.60;2.10;;;;;;;20.82;100.00;101182.56;5197512;28;20029;-71
2023/07/19 08:19:06;;;;;;;8.63;2.97;;;;;;;20.92;100.00;101175.09;5199751;28;20028;-71
2023/07/19 08:21:38;;;;;;;6.97;3.78;;;;;;;21.05;100.00;101168.22;5208550;28;20053;-71
2023/07/19 08:24:09;;;;;;;7.07;3.03;;;;;;;21.25;100.00;101176.78;5203044;28;20034;-71
2023/07/19 08:26:41;;;;;;;6.90;3.03;;;;;;;21.38;100.00;101171.56;5203856;28;20524;-70
2023/07/19 08:29:12;;;;;;;7.53;2.85;;;;;;;21.43;100.00;101174.59;5211531;28;20044;-71
2023/07/19 08:31:44;;;;;;;7.22;2.20;;;;;;;21.45;100.00;101174.44;5207209;28;20074;-70
2023/07/19 08:34:15;;;;;;;6.20;1.80;;;;;;;21.42;100.00;101172.91;5200222;28;20100;-71
2023/07/19 08:36:47;;;;;;;5.30;2.40;;;;;;;21.30;100.00;101172.47;5214283;28;20415;-71
2023/07/19 08:39:18;;;;;;;7.32;2.40;;;;;;;21.30;100.00;101175.19;5200641;28;20029;-71
2023/07/19 08:41:50;;;;;;;6.47;2.35;;;;;;;21.22;100.00;101175.25;5203188;28;20042;-71
2023/07/19 08:44:23;;;;;;;9.88;2.70;;;;;;;21.25;100.00;101182.19;5200511;28;20114;-71
2023/07/19 08:46:55;;;;;;;14.70;4.13;;;;;;;21.25;100.00;101184.91;5200566;28;20033;-71
2023/07/19 08:49:26;;;;;;;6.72;3.00;;;;;;;21.37;100.00;101175.31;5206248;28;20030;-71
2023/07/19 08:51:59;;;;;;;6.40;3.22;;;;;;;21.38;100.00;101178.88;5213471;28;20017;-71
2023/07/19 08:54:30;;;;;;;7.80;2.60;;;;;;;21.45;100.00;101182.59;5212841;28;20066;-71
2023/07/19 08:57:05;;;;;;;6.85;2.80;;;;;;;21.39;100.00;101186.00;5209997;28;20484;-71
2023/07/19 08:59:36;;;;;;;5.90;2.50;;;;;;;21.43;100.00;101177.31;5203479;28;20409;-71
2023/07/19 09:02:08;;;;;;;7.65;2.72;;;;;;;21.55;100.00;101175.03;5211321;28;20035;-71
2023/07/19 09:04:39;;;;;;;6.45;2.80;;;;;;;21.69;100.00;101170.72;5213360;28;20057;-71
2023/07/19 09:07:12;;;;;;;7.10;2.47;;;;;;;21.86;100.00;101179.53;5211318;28;20155;-71
2023/07/19 09:09:54;;;;;;;5.43;2.60;;;;;;;21.98;100.00;101179.97;5200881;28;20379;-71
2023/07/19 09:12:34;;;;;;;7.00;2.60;;;;;;;22.09;100.00;101185.78;5203447;28;20026;-71
2023/07/19 09:15:10;;;;;;;6.97;2.60;;;;;;;22.19;100.00;101179.25;5203362;28;20037;-71
2023/07/19 09:17:45;;;;;;;6.18;2.70;;;;;;;22.26;100.00;101180.19;5208619;28;20022;-71
2023/07/19 09:20:17;;;;;;;5.13;2.38;;;;;;;22.25;100.00;101183.97;5205175;28;20026;-71
2023/07/19 09:22:48;;;;;;;8.30;3.40;;;;;;;22.20;100.00;101186.34;5201636;28;20033;-71
2023/07/19 09:25:19;;;;;;;7.05;3.22;;;;;;;22.26;100.00;101175.63;5201004;28;20480;-70
2023/07/19 09:27:52;;;;;;;7.15;3.08;;;;;;;22.22;100.00;101174.25;5204184;28;20416;-70
2023/07/19 09:30:23;;;;;;;5.70;2.90;;;;;;;22.30;100.00;101170.63;5208546;28;20077;-70
2023/07/19 09:32:59;;;;;;;5.43;2.65;;;;;;;22.35;100.00;101168.22;5206253;28;20112;-71
2023/07/19 09:35:30;;;;;;;4.80;2.38;;;;;;;22.46;100.00;101169.63;5210873;28;20373;-70
2023/07/19 09:38:02;;;;;;;4.88;2.25;;;;;;;22.55;100.00;101178.53;5198646;28;20030;-70
2023/07/19 09:40:33;;;;;;;5.28;2.33;;;;;;;22.48;100.00;101173.84;5195544;28;20030;-71
2023/07/19 09:43:06;;;;;;;5.80;2.28;;;;;;;22.48;100.00;101183.88;5197559;28;21072;-70
2023/07/19 09:45:40;;;;;;;7.30;2.78;;;;;;;22.39;100.00;101177.69;5202833;28;20026;-70
2023/07/19 09:48:12;;;;;;;5.72;2.38;;;;;;;22.39;100.00;101168.69;5206971;28;20029;-70
2023/07/19 09:50:47;;;;;;;10.73;2.60;;;;;;;22.44;100.00;101177.13;5206286;28;20038;-70
2023/07/19 09:53:23;;;;;;;5.57;2.15;;;;;;;22.47;100.00;101179.47;5200393;28;22263;-71
2023/07/19 09:55:54;;;;;;;6.65;2.20;;;;;;;22.55;100.00;101176.66;5200652;28;20711;-71
2023/07/19 09:58:28;;;;;;;7.97;2.60;;;;;;;22.52;100.00;101175.16;5197365;28;20064;-71
2023/07/19 10:01:00;;;;;;;5.72;2.17;;;;;;;22.59;100.00;101182.53;5198876;28;20030;-70
2023/07/19 10:03:36;;;;;;;6.50;2.50;;;;;;;22.58;100.00;101170.84;5195112;28;20067;-71
2023/07/19 10:06:08;;;;;;;5.43;2.53;;;;;;;22.66;100.00;101168.00;5206139;28;20068;-71
2023/07/19 10:08:39;;;;;;;5.65;2.30;;;;;;;22.71;100.00;101167.44;5194965;28;20050;-70
2023/07/19 10:11:21;;;;;;;5.63;2.13;;;;;;;22.80;100.00;101177.19;5197529;28;20049;-70
2023/07/19 10:13:56;;;;;;;6.53;2.00;;;;;;;22.75;100.00;101174.19;5207165;28;20035;-71
2023/07/19 10:16:35;;;;;;;7.05;2.45;;;;;;;22.73;100.00;101178.97;5208528;28;20037;-71
2023/07/19 10:19:14;;;;;;;5.65;2.00;;;;;;;22.77;100.00;101177.56;5210078;28;20053;-71
2023/07/19 10:22:03;;;;;;;5.13;1.90;;;;;;;22.76;100.00;101170.44;5208252;28;20061;-71
2023/07/19 10:24:36;;;;;;;4.38;1.95;;;;;;;22.93;100.00;101173.78;5207574;28;20392;-71
2023/07/19 10:27:09;;;;;;;5.17;1.73;;;;;;;22.93;100.00;101181.94;5205504;28;20050;-71
2023/07/19 10:29:43;;;;;;;7.07;2.38;;;;;;;22.83;100.00;101174.09;5204343;28;20072;-71
2023/07/19 10:32:14;;;;;;;8.15;1.95;;;;;;;22.90;100.00;101175.00;5206673;28;20480;-71
2023/07/19 10:34:46;;;;;;;3.47;1.40;;;;;;;22.83;100.00;101171.38;5200285;28;20033;-70
2023/07/19 10:37:17;;;;;;;6.85;1.45;;;;;;;22.93;100.00;101172.94;5214633;28;20030;-70
2023/07/19 10:39:48;;;;;;;4.72;1.50;;;;;;;22.98;100.00;101170.50;5202433;28;20026;-71
2023/07/19 10:42:20;;;;;;;4.38;1.63;;;;;;;22.97;100.00;101166.09;5208152;28;20499;-70
2023/07/19 10:44:51;;;;;;;4.95;1.55;;;;;;;23.01;100.00;101172.81;5209055;28;20065;-71
2023/07/19 10:47:23;;;;;;;4.43;1.75;;;;;;;22.92;100.00;101174.00;5205847;28;20034;-71
2023/07/19 10:49:55;;;;;;;5.93;1.63;;;;;;;22.92;100.00;101168.56;5210296;28;20037;-72
2023/07/19 10:52:26;;;;;;;5.15;1.38;;;;;;;22.90;100.00;101166.00;5205822;28;20041;-70
2023/07/19 10:54:58;;;;;;;4.28;1.48;;;;;;;22.96;100.00;101167.13;5198803;28;20034;-70
2023/07/19 10:57:31;;;;;;;5.13;1.65;;;;;;;22.99;100.00;101167.59;5203570;28;20312;-71
2023/07/19 11:00:04;;;;;;;5.17;1.80;;;;;;;22.92;100.00;101160.38;5213845;28;20024;-70
2023/07/19 11:02:35;;;;;;;5.55;1.48;;;;;;;22.93;100.00;101165.63;5202979;28;20372;-70
2023/07/19 11:05:08;;;;;;;6.80;2.03;;;;;;;22.89;100.00;101170.59;5204899;28;20353;-70
2023/07/19 11:07:39;;;;;;;5.05;1.60;;;;;;;22.67;100.00;101177.03;5208520;28;20052;-70
2023/07/19 11:10:11;;;;;;;5.57;1.58;;;;;;;22.38;100.00;101183.28;5202777;28;20518;-70
2023/07/19 11:12:43;;;;;;;3.30;1.30;;;;;;;22.17;100.00;101171.28;5205156;28;20065;-70
2023/07/19 11:15:16;;;;;;;6.07;1.70;;;;;;;22.22;100.00;101173.41;5211738;28;20096;-70
2023/07/19 11:17:48;;;;;;;4.65;1.85;;;;;;;22.16;100.00;101169.56;5215847;28;20152;-69
2023/07/19 11:20:30;;;;;;;4.93;1.60;;;;;;;22.18;100.00;101166.66;5216980;28;20504;-69
2023/07/19 11:23:08;;;;;;;5.20;1.70;;;;;;;22.18;100.00;101166.66;5210897;28;20419;-69
2023/07/19 11:25:39;;;;;;;5.30;1.60;;;;;;;22.29;100.00;101166.25;5209364;28;20022;-68
2023/07/19 11:28:12;;;;;;;3.70;1.40;;;;;;;22.36;100.00;101153.59;5203634;28;20041;-70
2023/07/19 11:30:44;;;;;;;3.53;1.33;;;;;;;22.37;100.00;101159.88;5204925;28;20025;-69
2023/07/19 11:33:17;;;;;;;5.63;1.40;;;;;;;22.38;100.00;101151.53;5210199;28;20026;-69
2023/07/19 11:35:51;;;;;;;5.85;1.50;;;;;;;22.43;100.00;101154.50;5211315;28;20089;-71
2023/07/19 11:38:22;;;;;;;4.25;1.08;;;;;;;22.46;100.00;101156.88;5202681;28;20022;-70